Time;durP1;ratioP1;P1;durP2;ratioP2;P2;SDS_P1;SDS_P2;PMS_P1;PMS_P2;Temp;Humidity;BMP_temperature;BMP_pressure;BME280_temperature;BME280_humidity;BME280_pressure;Samples;Min_cycle;Max_cycle;Signal;HPM_P1;HPM_P2
2022/02/21 00:00:58;;;;;;;1.00;0.60;;;11.70;47.00;;;;;;5074154;28;20033;-70
2022/02/21 00:03:25;;;;;;;2.83;1.05;;;11.60;47.10;;;;;;5056474;28;20082;-70
2022/02/21 00:05:51;;;;;;;1.02;0.70;;;11.60;47.30;;;;;;5056327;28;20550;-69
2022/02/21 00:08:17;;;;;;;1.70;0.90;;;11.50;47.70;;;;;;5064184;28;20047;-71
2022/02/21 00:10:44;;;;;;;1.90;0.70;;;11.40;47.60;;;;;;5094175;28;20459;-70
2022/02/21 00:13:11;;;;;;;0.95;0.60;;;11.30;47.90;;;;;;5094642;28;20106;-70
2022/02/21 00:15:37;;;;;;;0.90;0.60;;;11.20;48.20;;;;;;5087244;28;20052;-70
2022/02/21 00:18:03;;;;;;;2.80;0.88;;;11.20;48.20;;;;;;5093916;28;20167;-69
2022/02/21 00:20:29;;;;;;;5.28;0.80;;;11.10;48.40;;;;;;5094210;28;20051;-70
2022/02/21 00:22:55;;;;;;;1.58;0.70;;;11.10;48.40;;;;;;5074767;28;20068;-69
2022/02/21 00:25:20;;;;;;;0.95;0.63;;;11.00;48.60;;;;;;5093142;28;20379;-71
2022/02/21 00:27:46;;;;;;;0.88;0.60;;;11.00;48.60;;;;;;5093383;28;20024;-69
2022/02/21 00:30:12;;;;;;;1.45;0.70;;;10.90;48.70;;;;;;5093640;28;20032;-69
2022/02/21 00:32:38;;;;;;;2.28;0.98;;;10.80;49.50;;;;;;5065240;28;20032;-69
2022/02/21 00:35:05;;;;;;;1.30;0.90;;;10.80;49.30;;;;;;5092112;28;20052;-69
2022/02/21 00:37:31;;;;;;;1.70;0.88;;;10.80;49.40;;;;;;5090467;28;20456;-69
2022/02/21 00:39:57;;;;;;;1.52;0.80;;;10.70;49.50;;;;;;5075271;28;20028;-70
2022/02/21 00:42:24;;;;;;;2.55;0.90;;;10.70;49.50;;;;;;5092652;28;20028;-70
2022/02/21 00:44:56;;;;;;;2.30;1.10;;;10.70;49.60;;;;;;5092411;28;20047;-69
2022/02/21 00:47:24;;;;;;;1.08;0.70;;;10.70;49.80;;;;;;5083932;28;20027;-70
2022/02/21 00:49:51;;;;;;;0.90;0.82;;;10.60;50.00;;;;;;5083365;28;20024;-69
2022/02/21 00:52:17;;;;;;;1.27;1.15;;;10.60;49.70;;;;;;5082625;28;20073;-72
2022/02/21 00:54:42;;;;;;;1.27;1.00;;;10.60;49.70;;;;;;5089535;28;20028;-70
2022/02/21 00:57:08;;;;;;;3.13;0.90;;;10.60;49.70;;;;;;5089181;28;20020;-70
2022/02/21 00:59:35;;;;;;;1.85;0.80;;;10.60;49.90;;;;;;5089362;28;20037;-70
2022/02/21 01:02:00;;;;;;;2.25;1.00;;;10.50;50.00;;;;;;5076759;28;20024;-69
2022/02/21 01:04:26;;;;;;;1.40;0.85;;;10.50;50.20;;;;;;5081760;28;20032;-70
2022/02/21 01:06:52;;;;;;;1.58;0.88;;;10.50;50.90;;;;;;5087533;28;20030;-69
2022/02/21 01:09:18;;;;;;;1.92;0.95;;;10.50;51.00;;;;;;5056893;28;20036;-69
2022/02/21 01:11:43;;;;;;;3.05;1.23;;;10.50;51.00;;;;;;5085792;28;20074;-70
2022/02/21 01:14:09;;;;;;;2.33;0.88;;;10.50;51.10;;;;;;5082017;28;20012;-69
2022/02/21 01:16:35;;;;;;;2.30;0.75;;;10.50;51.10;;;;;;5090006;28;20035;-70
2022/02/21 01:19:01;;;;;;;1.55;0.90;;;10.50;51.00;;;;;;5086833;28;20036;-70
2022/02/21 01:21:28;;;;;;;2.67;0.88;;;10.50;51.00;;;;;;5074940;28;20028;-69
2022/02/21 01:23:53;;;;;;;2.20;0.82;;;10.60;51.10;;;;;;5055192;28;20032;-69
2022/02/21 01:26:20;;;;;;;2.05;1.10;;;10.60;51.30;;;;;;5071927;28;20530;-69
2022/02/21 01:28:45;;;;;;;1.83;0.70;;;10.60;51.70;;;;;;5071831;28;20380;-69
2022/02/21 01:31:12;;;;;;;1.48;0.75;;;10.60;51.70;;;;;;5073169;28;20119;-70
2022/02/21 01:33:38;;;;;;;11.48;1.35;;;10.70;51.90;;;;;;5073476;28;20034;-67
2022/02/21 01:36:04;;;;;;;4.63;1.08;;;10.70;51.80;;;;;;5055059;28;20474;-67
2022/02/21 01:38:30;;;;;;;1.52;0.88;;;10.70;51.90;;;;;;5072682;28;20358;-68
2022/02/21 01:40:56;;;;;;;1.30;0.80;;;10.70;52.50;;;;;;5072811;28;20037;-70
2022/02/21 01:43:21;;;;;;;1.42;0.95;;;10.70;51.90;;;;;;5054914;28;20021;-68
2022/02/21 01:45:47;;;;;;;1.92;0.85;;;10.70;51.90;;;;;;5073240;28;20028;-69
2022/02/21 01:48:13;;;;;;;4.15;0.80;;;10.70;51.90;;;;;;5072937;28;20024;-69
2022/02/21 01:50:39;;;;;;;1.33;0.70;;;10.70;51.90;;;;;;5072600;28;20029;-69
2022/02/21 01:53:05;;;;;;;2.92;1.13;;;10.70;51.90;;;;;;5072576;28;20024;-69
2022/02/21 01:55:30;;;;;;;2.03;0.80;;;10.70;51.80;;;;;;5071428;28;20025;-69
2022/02/21 01:57:56;;;;;;;4.18;0.85;;;10.60;51.70;;;;;;5054814;28;20056;-70
2022/02/21 02:00:22;;;;;;;2.75;1.08;;;10.60;52.00;;;;;;5072443;28;20109;-69
2022/02/21 02:02:48;;;;;;;1.10;0.90;;;10.60;52.00;;;;;;5072434;28;20028;-69
2022/02/21 02:05:15;;;;;;;1.23;0.88;;;10.60;52.20;;;;;;5054688;28;20495;-69
2022/02/21 02:07:42;;;;;;;1.40;0.88;;;10.60;52.20;;;;;;5070536;28;20116;-69
2022/02/21 02:10:10;;;;;;;2.35;1.20;;;10.60;52.20;;;;;;5069050;28;20032;-69
2022/02/21 02:12:36;;;;;;;1.40;0.80;;;10.60;52.30;;;;;;5074466;28;20028;-70
2022/02/21 02:15:03;;;;;;;7.40;1.65;;;10.60;52.40;;;;;;5074155;28;20031;-69
2022/02/21 02:17:28;;;;;;;1.83;1.15;;;10.60;52.50;;;;;;5093243;28;20452;-69
2022/02/21 02:19:54;;;;;;;1.27;0.90;;;10.50;52.40;;;;;;5093438;28;20032;-69
2022/02/21 02:22:22;;;;;;;1.25;0.90;;;10.60;52.70;;;;;;5096375;28;20028;-69
2022/02/21 02:24:53;;;;;;;2.13;0.80;;;10.60;52.90;;;;;;5078143;28;20059;-69
2022/02/21 02:27:20;;;;;;;0.95;0.80;;;10.50;52.80;;;;;;5096415;28;20027;-69
2022/02/21 02:29:53;;;;;;;2.05;1.00;;;10.60;52.60;;;;;;5078051;28;20377;-69
2022/02/21 02:32:20;;;;;;;1.67;0.88;;;10.50;52.60;;;;;;5077701;28;20044;-69
2022/02/21 02:34:47;;;;;;;3.42;1.05;;;10.60;52.50;;;;;;5064007;28;20061;-69
2022/02/21 02:37:14;;;;;;;1.00;0.70;;;10.50;52.50;;;;;;5057892;28;20032;-69
2022/02/21 02:39:40;;;;;;;1.02;0.65;;;10.50;52.70;;;;;;5075893;28;20111;-69
2022/02/21 02:42:07;;;;;;;1.15;0.60;;;10.50;52.80;;;;;;5074255;28;20032;-69
2022/02/21 02:44:33;;;;;;;2.25;0.68;;;10.50;53.00;;;;;;5095961;28;20024;-69
2022/02/21 02:46:59;;;;;;;0.88;0.47;;;10.50;53.00;;;;;;5094699;28;20024;-69
2022/02/21 02:49:25;;;;;;;0.93;0.70;;;10.50;52.90;;;;;;5094226;28;20093;-69
2022/02/21 02:51:51;;;;;;;2.53;0.95;;;10.50;53.10;;;;;;5076773;28;20060;-69
2022/02/21 02:54:17;;;;;;;2.60;1.15;;;10.50;53.00;;;;;;5075554;28;20056;-69
2022/02/21 02:56:45;;;;;;;1.17;0.90;;;10.50;53.10;;;;;;5057206;28;20025;-69
2022/02/21 02:59:11;;;;;;;4.72;0.95;;;10.50;53.40;;;;;;5074279;28;20067;-69
2022/02/21 03:01:39;;;;;;;1.17;0.80;;;10.50;53.50;;;;;;5074246;28;20112;-69
2022/02/21 03:04:06;;;;;;;1.52;0.80;;;10.50;53.60;;;;;;5057374;28;20033;-68
2022/02/21 03:06:33;;;;;;;2.08;0.95;;;10.50;53.50;;;;;;5057405;28;20361;-69
2022/02/21 03:08:59;;;;;;;1.33;0.70;;;10.50;53.70;;;;;;5075714;28;20078;-69
2022/02/21 03:11:25;;;;;;;6.65;0.90;;;10.50;53.60;;;;;;5074977;28;20031;-69
2022/02/21 03:13:52;;;;;;;4.45;1.10;;;10.50;53.60;;;;;;5057301;28;20039;-70
2022/02/21 03:16:17;;;;;;;2.70;0.80;;;10.50;53.70;;;;;;5065587;28;20092;-70
2022/02/21 03:18:44;;;;;;;1.90;1.15;;;10.50;53.50;;;;;;5095378;28;20103;-70
2022/02/21 03:21:10;;;;;;;1.13;0.68;;;10.40;53.50;;;;;;5095217;28;20028;-69
2022/02/21 03:23:36;;;;;;;5.35;1.00;;;10.40;53.60;;;;;;5094845;28;20028;-70
2022/02/21 03:26:02;;;;;;;1.10;0.65;;;10.40;53.60;;;;;;5073440;28;20491;-70
2022/02/21 03:28:28;;;;;;;2.05;0.85;;;10.40;53.60;;;;;;5056866;28;20373;-69
2022/02/21 03:30:54;;;;;;;3.38;0.80;;;10.30;53.50;;;;;;5074031;28;20038;-71
2022/02/21 03:33:22;;;;;;;1.85;0.77;;;10.30;53.60;;;;;;5073490;28;20119;-69
2022/02/21 03:35:48;;;;;;;1.38;0.85;;;10.30;53.60;;;;;;5074418;28;20531;-70
2022/02/21 03:38:14;;;;;;;1.13;0.70;;;10.30;53.70;;;;;;5074698;28;20026;-69
2022/02/21 03:40:40;;;;;;;2.67;0.95;;;10.20;53.70;;;;;;5073209;28;20090;-69
2022/02/21 03:43:06;;;;;;;1.02;0.70;;;10.20;53.80;;;;;;5074542;28;20024;-69
2022/02/21 03:45:32;;;;;;;1.25;0.82;;;10.20;53.80;;;;;;5074645;28;20091;-70
2022/02/21 03:47:58;;;;;;;2.15;0.82;;;10.30;54.00;;;;;;5074268;28;20126;-69
2022/02/21 03:50:24;;;;;;;2.33;0.88;;;10.30;54.20;;;;;;5074461;28;20529;-70
2022/02/21 03:52:49;;;;;;;1.38;0.85;;;10.30;54.30;;;;;;5056192;28;20028;-69
2022/02/21 03:55:16;;;;;;;4.50;1.20;;;10.30;54.40;;;;;;5083448;28;20024;-69
2022/02/21 03:57:42;;;;;;;2.20;0.75;;;10.40;54.60;;;;;;5056261;28;20028;-69
2022/02/21 04:00:11;;;;;;;6.72;0.90;;;10.40;54.70;;;;;;5074264;28;20028;-69
2022/02/21 04:02:37;;;;;;;4.28;1.80;;;10.40;54.50;;;;;;5074193;28;20082;-70
2022/02/21 04:05:04;;;;;;;5.53;1.17;;;10.50;54.50;;;;;;5056247;28;20375;-69
2022/02/21 04:07:30;;;;;;;1.65;0.90;;;10.50;54.50;;;;;;5074091;28;20345;-70
2022/02/21 04:09:56;;;;;;;7.53;2.13;;;10.50;54.50;;;;;;5074029;28;20032;-70
2022/02/21 04:12:23;;;;;;;2.95;1.63;;;10.60;54.40;;;;;;5056275;28;20482;-69
2022/02/21 04:14:49;;;;;;;1.88;0.98;;;10.60;54.20;;;;;;5056081;28;20025;-69
2022/02/21 04:17:15;;;;;;;1.52;1.00;;;10.60;54.20;;;;;;5055918;28;20039;-69
2022/02/21 04:19:40;;;;;;;7.45;1.30;;;10.70;54.30;;;;;;5073749;28;20028;-70
2022/02/21 04:22:11;;;;;;;5.05;1.55;;;10.70;54.50;;;;;;5073924;28;20032;-69
2022/02/21 04:24:38;;;;;;;4.63;1.10;;;10.70;54.50;;;;;;5073424;28;20479;-70
2022/02/21 04:27:04;;;;;;;11.30;1.50;;;10.70;54.40;;;;;;5056337;28;20086;-69
2022/02/21 04:29:30;;;;;;;4.00;1.27;;;10.80;54.80;;;;;;5073441;28;20035;-70
2022/02/21 04:31:56;;;;;;;3.42;1.08;;;10.70;55.20;;;;;;5055704;28;20032;-69
2022/02/21 04:34:22;;;;;;;5.80;1.50;;;10.80;55.30;;;;;;5073363;28;20099;-69
2022/02/21 04:36:47;;;;;;;3.08;1.33;;;10.80;55.50;;;;;;5073653;28;20112;-70
2022/02/21 04:39:13;;;;;;;1.33;1.00;;;10.80;55.50;;;;;;5055534;28;20295;-70
2022/02/21 04:41:39;;;;;;;7.35;1.13;;;10.90;55.80;;;;;;5072554;28;20071;-69
2022/02/21 04:44:05;;;;;;;2.35;0.80;;;10.90;56.10;;;;;;5073584;28;20058;-70
2022/02/21 04:46:31;;;;;;;1.58;0.90;;;10.90;56.10;;;;;;5073170;28;20392;-70
2022/02/21 04:48:57;;;;;;;2.30;1.05;;;10.90;56.00;;;;;;5073113;28;20028;-70
2022/02/21 04:51:23;;;;;;;2.42;0.75;;;11.00;56.30;;;;;;5055503;28;20029;-69
2022/02/21 04:53:49;;;;;;;3.03;0.80;;;11.10;56.50;;;;;;5055467;28;20024;-70
2022/02/21 04:56:15;;;;;;;1.65;0.75;;;11.10;56.80;;;;;;5090839;28;20077;-69
2022/02/21 04:58:41;;;;;;;1.00;0.70;;;11.20;56.90;;;;;;5092030;28;20464;-70
2022/02/21 05:01:06;;;;;;;1.35;0.50;;;11.30;56.90;;;;;;5093885;28;20039;-69
2022/02/21 05:03:32;;;;;;;1.27;0.68;;;11.40;56.80;;;;;;5093363;28;20483;-70
2022/02/21 05:05:58;;;;;;;7.05;1.20;;;11.40;56.60;;;;;;5092205;28;20028;-69
2022/02/21 05:08:26;;;;;;;2.30;0.65;;;11.50;56.70;;;;;;5093418;28;20028;-70
2022/02/21 05:10:52;;;;;;;0.50;0.30;;;11.60;56.60;;;;;;5060164;28;20085;-69
2022/02/21 05:13:17;;;;;;;3.72;1.25;;;11.60;56.40;;;;;;5073451;28;20028;-70
2022/02/21 05:15:43;;;;;;;6.53;0.63;;;11.70;56.60;;;;;;5072820;28;20060;-70
2022/02/21 05:18:09;;;;;;;2.15;0.90;;;11.70;56.40;;;;;;5072835;28;20526;-69
2022/02/21 05:20:35;;;;;;;2.92;0.77;;;11.80;56.30;;;;;;5054999;28;20024;-69
2022/02/21 05:23:01;;;;;;;8.10;1.08;;;11.80;56.30;;;;;;5071756;28;20028;-68
2022/02/21 05:25:27;;;;;;;2.17;0.93;;;11.90;56.60;;;;;;5073012;28;20033;-69
2022/02/21 05:27:52;;;;;;;3.30;1.00;;;11.90;56.40;;;;;;5073172;28;20029;-69
2022/02/21 05:30:18;;;;;;;4.15;1.20;;;12.00;56.20;;;;;;5072631;28;20124;-69
2022/02/21 05:32:44;;;;;;;2.65;0.77;;;12.10;56.30;;;;;;5072962;28;20029;-68
2022/02/21 05:35:10;;;;;;;3.10;1.13;;;12.10;56.20;;;;;;5071176;28;20396;-67
2022/02/21 05:37:36;;;;;;;2.95;0.65;;;12.10;56.20;;;;;;5054695;28;20024;-68
2022/02/21 05:40:04;;;;;;;3.28;0.70;;;12.10;56.00;;;;;;5072736;28;20483;-70
2022/02/21 05:42:30;;;;;;;3.85;0.80;;;12.10;56.00;;;;;;5054803;28;20127;-69
2022/02/21 05:44:56;;;;;;;0.70;0.55;;;12.10;56.00;;;;;;5072823;28;20021;-68
2022/02/21 05:47:22;;;;;;;1.67;0.70;;;12.20;56.00;;;;;;5089083;28;20032;-67
2022/02/21 05:49:48;;;;;;;2.38;0.80;;;12.20;56.10;;;;;;5093082;28;20031;-70
2022/02/21 05:52:14;;;;;;;1.83;0.60;;;12.20;56.10;;;;;;5093566;28;20107;-70
2022/02/21 05:54:39;;;;;;;1.23;0.80;;;12.20;56.00;;;;;;5078450;28;20117;-70
2022/02/21 05:57:05;;;;;;;2.30;0.50;;;12.20;55.80;;;;;;5091299;28;20024;-68
2022/02/21 05:59:33;;;;;;;2.13;0.82;;;12.20;55.90;;;;;;5066943;28;20044;-69
2022/02/21 06:01:59;;;;;;;1.63;0.80;;;12.30;56.10;;;;;;5076350;28;20036;-69
2022/02/21 06:04:25;;;;;;;2.35;0.95;;;12.30;56.10;;;;;;5075045;28;20051;-69
2022/02/21 06:06:51;;;;;;;3.30;0.95;;;12.30;56.10;;;;;;5076210;28;20020;-67
2022/02/21 06:09:16;;;;;;;1.85;1.00;;;12.30;56.10;;;;;;5076404;28;20082;-67
2022/02/21 06:11:42;;;;;;;3.05;1.40;;;12.30;56.20;;;;;;5058173;28;20021;-69
2022/02/21 06:14:08;;;;;;;1.85;0.90;;;12.30;56.30;;;;;;5075922;28;20028;-68
2022/02/21 06:16:34;;;;;;;1.88;1.20;;;12.30;56.30;;;;;;5075913;28;20472;-67
2022/02/21 06:19:00;;;;;;;2.67;1.45;;;12.30;56.30;;;;;;5076035;28;20495;-70
2022/02/21 06:21:26;;;;;;;3.15;1.30;;;12.20;56.30;;;;;;5076094;28;20376;-70
2022/02/21 06:23:52;;;;;;;3.58;1.55;;;12.30;56.50;;;;;;5058062;28;20033;-69
2022/02/21 06:26:18;;;;;;;2.53;1.27;;;12.20;56.60;;;;;;5074931;28;20176;-70
2022/02/21 06:28:43;;;;;;;3.40;1.30;;;12.30;56.90;;;;;;5058600;28;20115;-70
2022/02/21 06:31:09;;;;;;;4.50;1.40;;;12.20;56.90;;;;;;5075947;28;20055;-70
2022/02/21 06:33:38;;;;;;;5.30;1.13;;;12.20;57.60;;;;;;5076119;28;20028;-70
2022/02/21 06:36:05;;;;;;;4.93;1.30;;;12.20;57.10;;;;;;5057958;28;20509;-69
2022/02/21 06:38:32;;;;;;;2.15;1.10;;;12.20;57.10;;;;;;5057802;28;20031;-70
2022/02/21 06:40:58;;;;;;;4.70;1.42;;;12.20;57.10;;;;;;5057665;28;20040;-69
2022/02/21 06:43:24;;;;;;;3.03;1.23;;;12.20;57.00;;;;;;5075996;28;20035;-68
2022/02/21 06:45:50;;;;;;;4.00;1.65;;;12.20;57.20;;;;;;5063269;28;20020;-68
2022/02/21 06:48:16;;;;;;;6.63;1.95;;;12.20;57.30;;;;;;5075876;28;20497;-67
2022/02/21 06:50:42;;;;;;;3.22;1.45;;;12.20;57.50;;;;;;5057854;28;20032;-68
2022/02/21 06:53:08;;;;;;;18.23;1.95;;;12.20;57.40;;;;;;5075767;28;20039;-68
2022/02/21 06:55:34;;;;;;;3.75;1.20;;;12.20;57.40;;;;;;5076833;28;20491;-68
2022/02/21 06:57:59;;;;;;;2.10;1.20;;;12.20;57.40;;;;;;5096253;28;20024;-68
2022/02/21 07:00:25;;;;;;;4.18;1.48;;;12.20;57.30;;;;;;5095907;28;20031;-68
2022/02/21 07:02:51;;;;;;;2.67;1.55;;;12.20;57.30;;;;;;5093994;28;20058;-67
2022/02/21 07:05:18;;;;;;;3.78;1.35;;;12.20;57.30;;;;;;5093363;28;20452;-69
2022/02/21 07:07:44;;;;;;;5.82;1.88;;;12.30;57.40;;;;;;5095725;28;20052;-68
2022/02/21 07:10:10;;;;;;;5.45;1.67;;;12.30;57.30;;;;;;5077566;28;20118;-68
2022/02/21 07:12:36;;;;;;;3.95;1.50;;;12.30;57.40;;;;;;5077504;28;20028;-68
2022/02/21 07:15:04;;;;;;;5.93;1.30;;;12.30;57.40;;;;;;5094147;28;20047;-68
2022/02/21 07:17:36;;;;;;;4.47;1.80;;;12.40;57.40;;;;;;5058385;28;20024;-69
2022/02/21 07:20:02;;;;;;;5.05;1.55;;;12.40;57.60;;;;;;5075225;28;20024;-68
2022/02/21 07:22:28;;;;;;;6.40;1.85;;;12.40;57.50;;;;;;5074831;28;20468;-68
2022/02/21 07:24:53;;;;;;;5.72;1.95;;;12.40;57.60;;;;;;5075160;28;20130;-68
2022/02/21 07:27:19;;;;;;;3.22;1.58;;;12.50;57.80;;;;;;5075125;28;20052;-68
2022/02/21 07:29:45;;;;;;;4.90;2.92;;;12.50;57.70;;;;;;5075083;28;20032;-68
2022/02/21 07:32:11;;;;;;;7.00;3.25;;;12.50;57.90;;;;;;5074935;28;20485;-68
2022/02/21 07:34:37;;;;;;;3.47;1.45;;;12.50;57.60;;;;;;5073572;28;20500;-69
2022/02/21 07:37:02;;;;;;;1.42;0.75;;;12.40;57.20;;;;;;5074974;28;20028;-68
2022/02/21 07:39:30;;;;;;;2.70;0.70;;;12.40;56.70;;;;;;5094614;28;20058;-68
2022/02/21 07:41:57;;;;;;;1.88;0.35;;;12.30;55.60;;;;;;5088773;28;20512;-70
2022/02/21 07:44:23;;;;;;;0.35;0.20;;;12.10;54.70;;;;;;5078752;28;20356;-68
2022/02/21 07:46:49;;;;;;;1.60;0.47;;;12.00;54.40;;;;;;5074822;28;20104;-68
2022/02/21 07:49:15;;;;;;;0.85;0.55;;;11.80;54.30;;;;;;5074315;28;20052;-68
2022/02/21 07:51:41;;;;;;;0.80;0.47;;;11.70;53.50;;;;;;5074633;28;20067;-68
2022/02/21 07:54:07;;;;;;;1.05;0.40;;;11.60;53.10;;;;;;5074588;28;20024;-68
2022/02/21 07:56:33;;;;;;;1.08;0.40;;;11.50;53.30;;;;;;5057889;28;20060;-69
2022/02/21 07:58:59;;;;;;;1.95;0.50;;;11.40;53.20;;;;;;5074141;28;20067;-68
2022/02/21 08:01:24;;;;;;;1.23;0.52;;;11.40;53.60;;;;;;5076916;28;20437;-68
2022/02/21 08:03:50;;;;;;;2.00;0.30;;;11.40;53.40;;;;;;5094483;28;20028;-68
2022/02/21 08:06:16;;;;;;;0.88;0.40;;;11.40;52.90;;;;;;5093339;28;20094;-68
2022/02/21 08:08:42;;;;;;;6.07;0.90;;;11.40;52.50;;;;;;5086478;28;20035;-70
2022/02/21 08:11:08;;;;;;;2.03;0.45;;;11.40;52.50;;;;;;5069574;28;20463;-68
2022/02/21 08:13:34;;;;;;;4.32;0.40;;;11.40;52.00;;;;;;5094349;28;20028;-68
2022/02/21 08:15:59;;;;;;;1.02;0.63;;;11.40;51.90;;;;;;5092907;28;20107;-68
2022/02/21 08:18:26;;;;;;;0.95;0.60;;;11.50;51.40;;;;;;5094169;28;20460;-68
2022/02/21 08:20:53;;;;;;;1.02;0.60;;;11.50;51.40;;;;;;5091233;28;20391;-68
2022/02/21 08:23:19;;;;;;;3.15;0.95;;;11.50;50.30;;;;;;5080768;28;20472;-69
2022/02/21 08:25:44;;;;;;;3.78;0.65;;;11.60;50.00;;;;;;5073114;28;20028;-68
2022/02/21 08:28:10;;;;;;;2.47;0.70;;;11.60;49.90;;;;;;5074531;28;20051;-67
2022/02/21 08:30:36;;;;;;;4.80;0.98;;;11.60;49.60;;;;;;5075730;28;20060;-67
2022/02/21 08:33:02;;;;;;;3.47;0.88;;;11.60;49.20;;;;;;5082276;28;20102;-69
2022/02/21 08:35:28;;;;;;;1.95;0.70;;;11.60;49.20;;;;;;5087475;28;20044;-67
2022/02/21 08:37:56;;;;;;;1.55;0.70;;;11.60;49.20;;;;;;5093727;28;20073;-67
2022/02/21 08:40:22;;;;;;;3.58;1.02;;;11.50;48.70;;;;;;5082492;28;20029;-67
2022/02/21 08:42:48;;;;;;;5.05;0.93;;;11.50;48.80;;;;;;5072490;28;20037;-68
2022/02/21 08:45:14;;;;;;;3.17;1.05;;;11.50;48.70;;;;;;5073196;28;20383;-67
2022/02/21 08:47:41;;;;;;;2.80;0.80;;;11.40;48.80;;;;;;5071936;28;20103;-66
2022/02/21 08:50:10;;;;;;;6.05;1.92;;;11.40;49.20;;;;;;5093464;28;20036;-66
2022/02/21 08:52:38;;;;;;;3.42;1.00;;;11.40;50.50;;;;;;5075292;28;20032;-67
2022/02/21 08:55:05;;;;;;;4.50;1.63;;;11.30;50.80;;;;;;5075260;28;20059;-67
2022/02/21 08:57:31;;;;;;;4.07;0.90;;;11.20;50.70;;;;;;5073533;28;20107;-68
2022/02/21 08:59:57;;;;;;;2.95;0.75;;;11.20;51.70;;;;;;5074984;28;20112;-67
2022/02/21 09:02:22;;;;;;;4.32;0.70;;;11.20;52.20;;;;;;5073357;28;20028;-67
2022/02/21 09:04:48;;;;;;;3.65;0.80;;;11.10;51.80;;;;;;5089383;28;20024;-67
2022/02/21 09:07:14;;;;;;;4.85;0.93;;;11.00;52.60;;;;;;5082177;28;20032;-68
2022/02/21 09:09:40;;;;;;;10.90;0.95;;;10.80;54.10;;;;;;5073238;28;20028;-68
2022/02/21 09:12:06;;;;;;;2.45;0.75;;;10.50;54.50;;;;;;5062099;28;20106;-69
2022/02/21 09:14:32;;;;;;;4.28;0.75;;;10.30;56.10;;;;;;5084383;28;20028;-70
2022/02/21 09:16:58;;;;;;;0.95;0.43;;;10.20;57.20;;;;;;5075368;28;20059;-70
2022/02/21 09:19:24;;;;;;;30.77;1.13;;;10.00;57.40;;;;;;5072405;28;20038;-73
2022/02/21 09:21:51;;;;;;;8.75;1.10;;;9.80;57.30;;;;;;5082722;28;20058;-75
2022/02/21 09:24:17;;;;;;;5.00;0.80;;;9.60;57.50;;;;;;5075506;28;20024;-79
2022/02/21 09:26:43;;;;;;;3.95;1.25;;;9.40;58.00;;;;;;5092920;28;20494;-83
2022/02/21 09:29:10;;;;;;;5.30;1.30;;;9.30;58.30;;;;;;5098661;28;20028;-80
2022/02/21 09:31:39;;;;;;;2.03;1.10;;;9.20;59.10;;;;;;5100113;28;20032;-78
2022/02/21 09:34:04;;;;;;;4.78;1.15;;;9.10;59.60;;;;;;5082881;28;20442;-72
2022/02/21 09:36:30;;;;;;;6.95;1.80;;;9.00;60.30;;;;;;5068846;28;20459;-72
2022/02/21 09:38:56;;;;;;;3.65;1.00;;;9.00;61.40;;;;;;5087657;28;20082;-72
2022/02/21 09:41:22;;;;;;;51.85;3.35;;;9.00;62.20;;;;;;5071124;28;20090;-74
2022/02/21 09:43:48;;;;;;;22.77;2.00;;;8.90;62.30;;;;;;5098400;28;20051;-74
2022/02/21 09:46:13;;;;;;;3.72;1.25;;;8.90;62.60;;;;;;5093846;28;20341;-73
2022/02/21 09:48:39;;;;;;;5.63;1.25;;;8.90;62.80;;;;;;5088676;28;20036;-74
2022/02/21 09:51:07;;;;;;;2.63;1.00;;;8.80;62.20;;;;;;5078200;28;20078;-71
2022/02/21 09:53:38;;;;;;;2.80;1.20;;;8.90;62.30;;;;;;5076900;28;20074;-73
2022/02/21 09:56:05;;;;;;;4.32;1.08;;;8.80;62.10;;;;;;5085778;28;20025;-72
2022/02/21 09:58:31;;;;;;;6.85;0.93;;;8.80;61.70;;;;;;5061138;28;20024;-71
2022/02/21 10:00:57;;;;;;;6.07;0.80;;;8.80;61.50;;;;;;5080368;28;20043;-73
2022/02/21 10:03:43;;;;;;;4.65;1.13;;;8.70;61.50;;;;;;5080021;28;20024;-76
2022/02/21 10:06:21;;;;;;;2.30;0.90;;;8.60;61.90;;;;;;5087136;28;20490;-74
2022/02/21 10:09:00;;;;;;;3.70;1.08;;;8.60;61.70;;;;;;5075843;28;20020;-71
2022/02/21 10:11:30;;;;;;;5.45;1.00;;;8.60;61.80;;;;;;5063078;28;20119;-71
2022/02/21 10:14:01;;;;;;;2.25;0.93;;;8.60;61.70;;;;;;5081155;28;20028;-72
2022/02/21 10:16:46;;;;;;;1.70;0.75;;;8.50;61.80;;;;;;5079646;28;20024;-71
2022/02/21 10:19:21;;;;;;;4.47;0.95;;;8.50;61.40;;;;;;5099145;28;20024;-70
2022/02/21 10:22:01;;;;;;;;;;;8.40;61.20;;;;;;5068403;28;20026;-73
2022/02/21 10:24:44;;;;;;;2.15;0.50;;;8.40;60.90;;;;;;5098983;28;20306;-70
2022/02/21 10:27:17;;;;;;;2.55;0.65;;;8.40;60.80;;;;;;5081244;28;20449;-69
2022/02/21 10:30:05;;;;;;;6.25;0.98;;;8.40;60.70;;;;;;5068346;28;20031;-75
2022/02/21 10:32:35;;;;;;;1.27;0.47;;;8.30;60.60;;;;;;5094636;28;20078;-70
2022/02/21 10:35:24;;;;;;;4.65;1.05;;;8.30;60.40;;;;;;5093188;28;20048;-77
2022/02/21 10:37:58;;;;;;;3.58;0.90;;;8.30;60.20;;;;;;5098240;28;20381;-75
2022/02/21 10:40:37;;;;;;;4.07;0.93;;;8.40;60.10;;;;;;5060742;28;20036;-67
2022/02/21 10:43:15;;;;;;;2.42;0.90;;;8.40;59.70;;;;;;5075931;28;20033;-72
2022/02/21 10:45:42;;;;;;;1.65;0.60;;;8.40;59.20;;;;;;5066546;28;20455;-73
2022/02/21 10:48:16;;;;;;;5.25;0.80;;;8.50;59.30;;;;;;5075357;28;20046;-73
2022/02/21 10:51:00;;;;;;;4.13;0.90;;;8.50;58.80;;;;;;5083665;28;20456;-73
2022/02/21 10:53:55;;;;;;;2.65;1.15;;;8.50;59.10;;;;;;5075489;28;20024;-73
2022/02/21 10:56:21;;;;;;;3.78;0.93;;;8.60;59.10;;;;;;4974407;28;20185;-73
2022/02/21 10:58:47;;;;;;;1.35;0.60;;;8.80;59.10;;;;;;4984821;28;20034;-73
2022/02/21 11:01:16;;;;;;;1.90;0.65;;;8.90;58.90;;;;;;4993433;28;20042;-74
2022/02/21 11:03:42;;;;;;;5.47;0.80;;;8.90;58.50;;;;;;4991823;28;20026;-73
2022/02/21 11:06:08;;;;;;;2.40;0.75;;;9.10;58.40;;;;;;4977327;28;20125;-74
2022/02/21 11:08:37;;;;;;;3.83;1.00;;;9.20;57.60;;;;;;4993553;28;20040;-74
2022/02/21 11:11:08;;;;;;;3.40;1.13;;;9.30;57.00;;;;;;4993638;28;20077;-71
2022/02/21 11:13:34;;;;;;;5.07;0.93;;;9.40;56.80;;;;;;4966139;28;20095;-72
2022/02/21 11:16:01;;;;;;;1.90;0.80;;;9.50;56.20;;;;;;4968203;28;20094;-71
2022/02/21 11:18:28;;;;;;;5.65;1.20;;;9.50;55.40;;;;;;4973905;28;20034;-72
2022/02/21 11:20:54;;;;;;;2.83;0.80;;;9.60;55.40;;;;;;4973840;28;20506;-71
2022/02/21 11:23:20;;;;;;;1.83;1.10;;;9.60;55.00;;;;;;4986140;28;20089;-72
2022/02/21 11:25:56;;;;;;;7.65;2.50;;;9.70;55.10;;;;;;4974259;28;20038;-71
2022/02/21 11:28:51;;;;;;;2.67;0.88;;;9.80;54.90;;;;;;4992670;28;20026;-73
2022/02/21 11:31:30;;;;;;;4.18;1.10;;;9.80;55.00;;;;;;4989189;28;20038;-77
2022/02/21 11:34:09;;;;;;;6.32;1.88;;;9.90;54.40;;;;;;5074177;28;20151;-75
2022/02/21 11:36:41;;;;;;;6.78;2.58;;;10.00;53.90;;;;;;5078130;28;20110;-72
2022/02/21 11:39:22;;;;;;;5.03;1.20;;;10.00;53.70;;;;;;5056681;28;20379;-71
2022/02/21 11:42:12;;;;;;;3.17;1.17;;;10.10;53.50;;;;;;5092900;28;20082;-77
2022/02/21 11:44:49;;;;;;;4.43;1.15;;;10.20;53.40;;;;;;5094796;28;20103;-78
2022/02/21 11:47:38;;;;;;;4.30;1.00;;;10.30;53.20;;;;;;5093187;28;20124;-76
2022/02/21 11:50:29;;;;;;;3.17;0.93;;;10.40;52.60;;;;;;5056105;28;20465;-76
2022/02/21 11:53:19;;;;;;;3.50;0.80;;;10.40;52.60;;;;;;5041083;28;20122;-75
2022/02/21 11:55:46;;;;;;;7.45;2.40;;;10.50;53.20;;;;;;5073811;28;20039;-73
2022/02/21 11:58:15;;;;;;;3.22;1.58;;;10.60;52.70;;;;;;5056508;28;20028;-74
2022/02/21 12:00:45;;;;;;;4.32;0.95;;;10.70;53.30;;;;;;5061932;28;20032;-73
2022/02/21 12:03:22;;;;;;;2.03;0.85;;;10.90;52.60;;;;;;5080353;28;20082;-73
2022/02/21 12:06:10;;;;;;;3.53;1.02;;;11.10;51.80;;;;;;5080773;28;20045;-74
2022/02/21 12:08:40;;;;;;;3.55;1.13;;;11.20;51.00;;;;;;5060812;28;20120;-74
2022/02/21 12:11:07;;;;;;;5.95;1.67;;;11.30;50.20;;;;;;5056052;28;20532;-72
2022/02/21 12:13:33;;;;;;;3.15;0.98;;;11.30;49.40;;;;;;5056931;28;20478;-83
2022/02/21 12:16:07;;;;;;;8.23;2.38;;;11.30;49.50;;;;;;5067922;28;20371;-83
2022/02/21 12:18:41;;;;;;;8.93;2.65;;;11.20;47.90;;;;;;5093280;28;20039;-84
2022/02/21 12:21:19;;;;;;;5.43;1.55;;;11.20;47.60;;;;;;5072092;28;20041;-84
2022/02/21 12:23:58;;;;;;;8.00;2.05;;;11.10;48.20;;;;;;5074538;28;20380;-84
2022/02/21 12:26:24;;;;;;;3.85;0.95;;;11.10;48.60;;;;;;5069716;28;20099;-84
2022/02/21 12:29:11;;;;;;;20.08;1.67;;;11.10;49.90;;;;;;5076149;28;20024;-84
2022/02/21 12:31:41;;;;;;;9.98;1.80;;;11.20;47.40;;;;;;5072962;28;20401;-82
2022/02/21 12:34:14;;;;;;;7.85;3.22;;;11.30;48.80;;;;;;5056060;28;20143;-83
2022/02/21 12:36:42;;;;;;;3.95;1.20;;;11.30;48.20;;;;;;5072620;28;20052;-84
2022/02/21 12:39:10;;;;;;;13.02;3.10;;;11.40;48.60;;;;;;5076015;28;20028;-83
2022/02/21 12:41:50;;;;;;;6.60;1.60;;;11.40;47.60;;;;;;5076168;28;20035;-82
2022/02/21 12:44:17;;;;;;;8.27;1.80;;;11.40;46.70;;;;;;5068790;28;20062;-85
2022/02/21 12:46:54;;;;;;;3.60;1.20;;;11.40;47.20;;;;;;5067829;28;20024;-86
2022/02/21 12:49:26;;;;;;;12.27;1.80;;;11.50;48.50;;;;;;5076483;28;20043;-84
2022/02/21 12:52:08;;;;;;;8.77;2.15;;;11.60;47.70;;;;;;5073194;28;20119;-76